sensor_id;sensor_type;location;lat;lon;timestamp;pressure;altitude;pressure_sealevel;temperature;humidity
41706;BME280;27385;51.096;17.190;2023-09-18T00:00:16;100306.23;;;15.78;85.12
41706;BME280;27385;51.096;17.190;2023-09-18T00:03:07;100301.70;;;15.71;85.16
41706;BME280;27385;51.096;17.190;2023-09-18T00:05:37;100302.98;;;15.64;85.10
41706;BME280;27385;51.096;17.190;2023-09-18T00:08:08;100298.67;;;15.58;85.26
41706;BME280;27385;51.096;17.190;2023-09-18T00:10:39;100299.77;;;15.55;85.12
41706;BME280;27385;51.096;17.190;2023-09-18T00:13:10;100296.45;;;15.51;85.13
41706;BME280;27385;51.096;17.190;2023-09-18T00:15:40;100297.16;;;15.51;85.09
41706;BME280;27385;51.096;17.190;2023-09-18T00:18:14;100291.27;;;15.47;85.13
41706;BME280;27385;51.096;17.190;2023-09-18T00:20:45;100289.17;;;15.44;85.27
41706;BME280;27385;51.096;17.190;2023-09-18T00:23:17;100295.80;;;15.43;85.30
41706;BME280;27385;51.096;17.190;2023-09-18T00:25:48;100286.90;;;15.39;85.49
41706;BME280;27385;51.096;17.190;2023-09-18T00:28:18;100288.18;;;15.35;85.56
41706;BME280;27385;51.096;17.190;2023-09-18T00:30:50;100279.38;;;15.32;85.77
41706;BME280;27385;51.096;17.190;2023-09-18T00:33:21;100285.73;;;15.32;85.78
41706;BME280;27385;51.096;17.190;2023-09-18T00:35:52;100282.19;;;15.32;85.94
41706;BME280;27385;51.096;17.190;2023-09-18T00:38:23;100283.11;;;15.33;86.06
41706;BME280;27385;51.096;17.190;2023-09-18T00:40:53;100280.61;;;15.34;86.30
41706;BME280;27385;51.096;17.190;2023-09-18T00:43:24;100282.14;;;15.33;86.58
41706;BME280;27385;51.096;17.190;2023-09-18T00:45:55;100283.37;;;15.29;86.77
41706;BME280;27385;51.096;17.190;2023-09-18T00:48:26;100281.52;;;15.25;86.91
41706;BME280;27385;51.096;17.190;2023-09-18T00:50:57;100282.43;;;15.20;87.03
41706;BME280;27385;51.096;17.190;2023-09-18T00:53:28;100280.65;;;15.17;87.04
41706;BME280;27385;51.096;17.190;2023-09-18T00:56:00;100277.98;;;15.14;87.00
41706;BME280;27385;51.096;17.190;2023-09-18T00:58:31;100278.75;;;15.11;87.18
41706;BME280;27385;51.096;17.190;2023-09-18T01:01:04;100274.85;;;15.08;87.26
41706;BME280;27385;51.096;17.190;2023-09-18T01:03:35;100272.39;;;15.04;87.46
41706;BME280;27385;51.096;17.190;2023-09-18T01:06:06;100267.98;;;15.03;87.33
41706;BME280;27385;51.096;17.190;2023-09-18T01:08:37;100274.65;;;15.03;87.37
41706;BME280;27385;51.096;17.190;2023-09-18T01:11:12;100275.05;;;15.01;87.51
41706;BME280;27385;51.096;17.190;2023-09-18T01:13:49;100272.23;;;14.96;87.91
41706;BME280;27385;51.096;17.190;2023-09-18T01:16:27;100270.19;;;14.95;87.64
41706;BME280;27385;51.096;17.190;2023-09-18T01:19:02;100267.67;;;14.94;87.85
41706;BME280;27385;51.096;17.190;2023-09-18T01:21:33;100267.25;;;14.91;87.77
41706;BME280;27385;51.096;17.190;2023-09-18T01:24:04;100261.27;;;14.89;87.82
41706;BME280;27385;51.096;17.190;2023-09-18T01:26:35;100257.85;;;14.86;87.99
41706;BME280;27385;51.096;17.190;2023-09-18T01:29:06;100258.87;;;14.85;88.26
41706;BME280;27385;51.096;17.190;2023-09-18T01:31:36;100253.25;;;14.84;88.19
41706;BME280;27385;51.096;17.190;2023-09-18T01:34:07;100255.18;;;14.84;88.53
41706;BME280;27385;51.096;17.190;2023-09-18T01:36:39;100251.01;;;14.85;88.61
41706;BME280;27385;51.096;17.190;2023-09-18T01:39:11;100249.71;;;14.84;88.77
41706;BME280;27385;51.096;17.190;2023-09-18T01:41:42;100242.88;;;14.85;88.88
41706;BME280;27385;51.096;17.190;2023-09-18T01:44:13;100239.52;;;14.87;89.03
41706;BME280;27385;51.096;17.190;2023-09-18T01:46:45;100237.11;;;14.89;89.04
41706;BME280;27385;51.096;17.190;2023-09-18T01:49:16;100234.95;;;14.91;89.37
41706;BME280;27385;51.096;17.190;2023-09-18T01:51:46;100233.04;;;14.93;89.44
41706;BME280;27385;51.096;17.190;2023-09-18T01:54:18;100229.25;;;14.97;89.73
41706;BME280;27385;51.096;17.190;2023-09-18T01:56:49;100225.92;;;14.98;89.75
41706;BME280;27385;51.096;17.190;2023-09-18T01:59:20;100226.34;;;14.97;89.89
41706;BME280;27385;51.096;17.190;2023-09-18T02:01:51;100222.96;;;14.95;89.88
41706;BME280;27385;51.096;17.190;2023-09-18T02:04:23;100222.70;;;14.92;90.20
41706;BME280;27385;51.096;17.190;2023-09-18T02:06:55;100218.35;;;14.87;90.41
41706;BME280;27385;51.096;17.190;2023-09-18T02:09:26;100219.98;;;14.84;90.51
41706;BME280;27385;51.096;17.190;2023-09-18T02:11:57;100219.06;;;14.81;90.58
41706;BME280;27385;51.096;17.190;2023-09-18T02:14:28;100215.98;;;14.78;90.69
41706;BME280;27385;51.096;17.190;2023-09-18T02:17:00;100215.42;;;14.74;90.79
41706;BME280;27385;51.096;17.190;2023-09-18T02:19:32;100213.92;;;14.72;90.90
41706;BME280;27385;51.096;17.190;2023-09-18T02:22:03;100211.58;;;14.70;90.79
41706;BME280;27385;51.096;17.190;2023-09-18T02:24:34;100210.91;;;14.68;90.92
41706;BME280;27385;51.096;17.190;2023-09-18T02:27:06;100204.41;;;14.67;91.17
41706;BME280;27385;51.096;17.190;2023-09-18T02:29:37;100206.30;;;14.65;91.20
41706;BME280;27385;51.096;17.190;2023-09-18T02:32:08;100204.00;;;14.62;91.51
41706;BME280;27385;51.096;17.190;2023-09-18T02:34:39;100203.85;;;14.61;91.71
41706;BME280;27385;51.096;17.190;2023-09-18T02:37:10;100205.89;;;14.59;91.66
41706;BME280;27385;51.096;17.190;2023-09-18T02:39:41;100207.16;;;14.58;91.74
41706;BME280;27385;51.096;17.190;2023-09-18T02:42:11;100204.35;;;14.56;91.75
41706;BME280;27385;51.096;17.190;2023-09-18T02:44:42;100204.81;;;14.54;91.67
41706;BME280;27385;51.096;17.190;2023-09-18T02:47:13;100199.94;;;14.52;91.76
41706;BME280;27385;51.096;17.190;2023-09-18T02:49:43;100203.66;;;14.51;91.79
41706;BME280;27385;51.096;17.190;2023-09-18T02:52:14;100204.33;;;14.50;92.11
41706;BME280;27385;51.096;17.190;2023-09-18T02:54:45;100202.44;;;14.50;92.43
41706;BME280;27385;51.096;17.190;2023-09-18T02:57:16;100203.83;;;14.50;92.41
41706;BME280;27385;51.096;17.190;2023-09-18T02:59:47;100201.16;;;14.50;92.49
41706;BME280;27385;51.096;17.190;2023-09-18T03:02:18;100203.67;;;14.50;92.62
41706;BME280;27385;51.096;17.190;2023-09-18T03:04:48;100205.66;;;14.49;92.86
41706;BME280;27385;51.096;17.190;2023-09-18T03:07:19;100205.04;;;14.47;93.04
41706;BME280;27385;51.096;17.190;2023-09-18T03:09:50;100202.90;;;14.46;93.08
41706;BME280;27385;51.096;17.190;2023-09-18T03:12:21;100201.82;;;14.46;93.11
41706;BME280;27385;51.096;17.190;2023-09-18T03:14:52;100191.76;;;14.46;93.14
41706;BME280;27385;51.096;17.190;2023-09-18T03:17:23;100194.98;;;14.48;93.18
41706;BME280;27385;51.096;17.190;2023-09-18T03:19:54;100195.64;;;14.48;93.48
41706;BME280;27385;51.096;17.190;2023-09-18T03:22:25;100192.99;;;14.47;93.55
41706;BME280;27385;51.096;17.190;2023-09-18T03:24:55;100183.34;;;14.45;93.60
41706;BME280;27385;51.096;17.190;2023-09-18T03:27:26;100191.71;;;14.45;93.76
41706;BME280;27385;51.096;17.190;2023-09-18T03:29:58;100186.91;;;14.44;93.86
41706;BME280;27385;51.096;17.190;2023-09-18T03:32:28;100185.11;;;14.43;93.74
41706;BME280;27385;51.096;17.190;2023-09-18T03:34:59;100188.73;;;14.43;94.10
41706;BME280;27385;51.096;17.190;2023-09-18T03:37:30;100184.02;;;14.42;94.08
41706;BME280;27385;51.096;17.190;2023-09-18T03:40:01;100180.61;;;14.41;94.14
41706;BME280;27385;51.096;17.190;2023-09-18T03:42:32;100170.30;;;14.39;94.20
41706;BME280;27385;51.096;17.190;2023-09-18T03:45:04;100171.52;;;14.38;94.31
41706;BME280;27385;51.096;17.190;2023-09-18T03:47:36;100169.83;;;14.37;94.32
41706;BME280;27385;51.096;17.190;2023-09-18T03:50:10;100165.08;;;14.35;94.26
41706;BME280;27385;51.096;17.190;2023-09-18T03:52:41;100167.36;;;14.33;94.28
41706;BME280;27385;51.096;17.190;2023-09-18T03:55:12;100159.71;;;14.32;94.29
41706;BME280;27385;51.096;17.190;2023-09-18T03:57:43;100163.64;;;14.34;94.71
41706;BME280;27385;51.096;17.190;2023-09-18T04:00:17;100158.95;;;14.35;95.16
41706;BME280;27385;51.096;17.190;2023-09-18T04:02:47;100151.90;;;14.36;95.09
41706;BME280;27385;51.096;17.190;2023-09-18T04:05:18;100146.90;;;14.37;94.83
41706;BME280;27385;51.096;17.190;2023-09-18T04:07:49;100142.92;;;14.39;95.28
41706;BME280;27385;51.096;17.190;2023-09-18T04:10:20;100139.50;;;14.39;95.26
41706;BME280;27385;51.096;17.190;2023-09-18T04:12:52;100135.88;;;14.40;95.36
41706;BME280;27385;51.096;17.190;2023-09-18T04:15:23;100143.13;;;14.42;95.37
41706;BME280;27385;51.096;17.190;2023-09-18T04:17:55;100143.54;;;14.44;95.46
41706;BME280;27385;51.096;17.190;2023-09-18T04:20:25;100145.80;;;14.45;95.44
41706;BME280;27385;51.096;17.190;2023-09-18T04:23:19;100142.83;;;14.46;95.46
41706;BME280;27385;51.096;17.190;2023-09-18T04:25:51;100136.66;;;14.47;95.60
41706;BME280;27385;51.096;17.190;2023-09-18T04:28:23;100136.77;;;14.47;95.66
41706;BME280;27385;51.096;17.190;2023-09-18T04:30:53;100135.34;;;14.48;95.50
41706;BME280;27385;51.096;17.190;2023-09-18T04:33:24;100130.12;;;14.49;95.41
41706;BME280;27385;51.096;17.190;2023-09-18T04:35:58;100126.69;;;14.49;95.68
41706;BME280;27385;51.096;17.190;2023-09-18T04:38:28;100125.62;;;14.50;95.25
41706;BME280;27385;51.096;17.190;2023-09-18T04:41:02;100120.98;;;14.51;95.50
41706;BME280;27385;51.096;17.190;2023-09-18T04:43:34;100112.86;;;14.51;95.49
41706;BME280;27385;51.096;17.190;2023-09-18T04:46:05;100108.46;;;14.51;95.58
41706;BME280;27385;51.096;17.190;2023-09-18T04:48:36;100116.64;;;14.51;95.70
41706;BME280;27385;51.096;17.190;2023-09-18T04:51:07;100118.89;;;14.51;95.92
41706;BME280;27385;51.096;17.190;2023-09-18T04:53:37;100111.27;;;14.52;95.93
41706;BME280;27385;51.096;17.190;2023-09-18T04:56:08;100111.98;;;14.53;95.88
41706;BME280;27385;51.096;17.190;2023-09-18T04:58:40;100108.64;;;14.54;95.94
41706;BME280;27385;51.096;17.190;2023-09-18T05:01:10;100112.30;;;14.55;96.01
41706;BME280;27385;51.096;17.190;2023-09-18T05:03:41;100110.37;;;14.56;96.23
41706;BME280;27385;51.096;17.190;2023-09-18T05:06:12;100110.94;;;14.55;96.22
41706;BME280;27385;51.096;17.190;2023-09-18T05:08:43;100113.59;;;14.57;96.41
41706;BME280;27385;51.096;17.190;2023-09-18T05:11:13;100112.71;;;14.58;96.37
41706;BME280;27385;51.096;17.190;2023-09-18T05:13:44;100109.35;;;14.60;96.49
41706;BME280;27385;51.096;17.190;2023-09-18T05:16:15;100109.04;;;14.63;96.56
41706;BME280;27385;51.096;17.190;2023-09-18T05:18:46;100104.60;;;14.66;96.93
41706;BME280;27385;51.096;17.190;2023-09-18T05:21:17;100104.69;;;14.69;96.99
41706;BME280;27385;51.096;17.190;2023-09-18T05:23:52;100100.77;;;14.71;97.11
41706;BME280;27385;51.096;17.190;2023-09-18T05:26:24;100102.81;;;14.74;96.93
41706;BME280;27385;51.096;17.190;2023-09-18T05:28:56;100095.66;;;14.77;97.10
41706;BME280;27385;51.096;17.190;2023-09-18T05:31:26;100093.20;;;14.80;97.16
41706;BME280;27385;51.096;17.190;2023-09-18T05:33:57;100093.21;;;14.83;97.30
41706;BME280;27385;51.096;17.190;2023-09-18T05:36:28;100093.20;;;14.87;97.38
41706;BME280;27385;51.096;17.190;2023-09-18T05:38:59;100092.48;;;14.90;97.20
41706;BME280;27385;51.096;17.190;2023-09-18T05:41:30;100085.53;;;14.94;97.64
41706;BME280;27385;51.096;17.190;2023-09-18T05:44:01;100086.74;;;14.99;97.80
41706;BME280;27385;51.096;17.190;2023-09-18T05:46:33;100083.96;;;15.04;98.14
41706;BME280;27385;51.096;17.190;2023-09-18T05:49:04;100081.67;;;15.08;98.33
41706;BME280;27385;51.096;17.190;2023-09-18T05:51:35;100083.30;;;15.12;98.19
41706;BME280;27385;51.096;17.190;2023-09-18T05:54:06;100085.65;;;15.17;98.68
41706;BME280;27385;51.096;17.190;2023-09-18T05:56:36;100087.42;;;15.21;98.90
41706;BME280;27385;51.096;17.190;2023-09-18T05:59:07;100081.12;;;15.26;98.87
41706;BME280;27385;51.096;17.190;2023-09-18T06:01:38;100080.30;;;15.30;99.08
41706;BME280;27385;51.096;17.190;2023-09-18T06:04:08;100078.23;;;15.35;99.84
41706;BME280;27385;51.096;17.190;2023-09-18T06:06:40;100070.74;;;15.40;99.88
41706;BME280;27385;51.096;17.190;2023-09-18T06:09:11;100074.05;;;15.45;99.61
41706;BME280;27385;51.096;17.190;2023-09-18T06:11:42;100069.02;;;15.50;99.86
41706;BME280;27385;51.096;17.190;2023-09-18T06:14:13;100067.65;;;15.56;100.00
41706;BME280;27385;51.096;17.190;2023-09-18T06:16:43;100065.94;;;15.61;100.00
41706;BME280;27385;51.096;17.190;2023-09-18T06:19:14;100064.44;;;15.67;100.00
41706;BME280;27385;51.096;17.190;2023-09-18T06:21:46;100065.21;;;15.74;100.00
41706;BME280;27385;51.096;17.190;2023-09-18T06:24:17;100065.55;;;15.80;100.00
41706;BME280;27385;51.096;17.190;2023-09-18T06:26:47;100057.42;;;15.87;100.00
41706;BME280;27385;51.096;17.190;2023-09-18T06:29:20;100055.89;;;15.94;100.00
41706;BME280;27385;51.096;17.190;2023-09-18T06:31:51;100056.21;;;16.02;100.00
41706;BME280;27385;51.096;17.190;2023-09-18T06:34:22;100054.41;;;16.11;100.00
41706;BME280;27385;51.096;17.190;2023-09-18T06:36:52;100056.72;;;16.19;100.00
41706;BME280;27385;51.096;17.190;2023-09-18T06:39:23;100056.83;;;16.26;100.00
41706;BME280;27385;51.096;17.190;2023-09-18T06:41:55;100052.14;;;16.35;100.00
41706;BME280;27385;51.096;17.190;2023-09-18T06:44:26;100051.98;;;16.45;100.00
41706;BME280;27385;51.096;17.190;2023-09-18T06:46:57;100049.37;;;16.53;100.00
41706;BME280;27385;51.096;17.190;2023-09-18T06:49:29;100041.21;;;16.62;100.00
41706;BME280;27385;51.096;17.190;2023-09-18T06:52:00;100044.21;;;16.69;100.00
41706;BME280;27385;51.096;17.190;2023-09-18T06:54:30;100040.85;;;16.77;100.00
41706;BME280;27385;51.096;17.190;2023-09-18T06:57:01;100046.77;;;16.87;100.00
41706;BME280;27385;51.096;17.190;2023-09-18T06:59:32;100041.85;;;16.97;100.00
41706;BME280;27385;51.096;17.190;2023-09-18T07:02:04;100045.90;;;17.07;100.00
41706;BME280;27385;51.096;17.190;2023-09-18T07:04:34;100041.30;;;17.15;100.00
41706;BME280;27385;51.096;17.190;2023-09-18T07:07:05;100046.10;;;17.25;100.00
41706;BME280;27385;51.096;17.190;2023-09-18T07:09:36;100042.30;;;17.35;100.00
41706;BME280;27385;51.096;17.190;2023-09-18T07:12:08;100041.29;;;17.43;100.00
41706;BME280;27385;51.096;17.190;2023-09-18T07:14:39;100046.48;;;17.52;100.00
41706;BME280;27385;51.096;17.190;2023-09-18T07:17:10;100044.52;;;17.62;100.00
41706;BME280;27385;51.096;17.190;2023-09-18T07:19:41;100041.33;;;17.71;100.00
41706;BME280;27385;51.096;17.190;2023-09-18T07:22:12;100037.64;;;17.81;100.00
41706;BME280;27385;51.096;17.190;2023-09-18T07:24:43;100039.55;;;17.92;100.00
41706;BME280;27385;51.096;17.190;2023-09-18T07:27:16;100033.59;;;18.00;100.00
41706;BME280;27385;51.096;17.190;2023-09-18T07:29:46;100030.92;;;18.09;100.00
41706;BME280;27385;51.096;17.190;2023-09-18T07:32:17;100028.19;;;18.17;100.00
41706;BME280;27385;51.096;17.190;2023-09-18T07:34:49;100025.50;;;18.25;100.00
41706;BME280;27385;51.096;17.190;2023-09-18T07:37:20;100025.17;;;18.32;99.87
41706;BME280;27385;51.096;17.190;2023-09-18T07:39:51;100026.84;;;18.41;99.92
41706;BME280;27385;51.096;17.190;2023-09-18T07:42:25;100026.86;;;18.50;99.71
41706;BME280;27385;51.096;17.190;2023-09-18T07:44:56;100029.91;;;18.62;99.55
41706;BME280;27385;51.096;17.190;2023-09-18T07:47:28;100028.84;;;18.73;99.35
41706;BME280;27385;51.096;17.190;2023-09-18T07:50:01;100027.41;;;18.84;99.19
41706;BME280;27385;51.096;17.190;2023-09-18T07:52:32;100025.70;;;18.96;98.98
41706;BME280;27385;51.096;17.190;2023-09-18T07:55:02;100028.05;;;19.05;98.69
41706;BME280;27385;51.096;17.190;2023-09-18T07:57:33;100023.48;;;19.15;98.26
41706;BME280;27385;51.096;17.190;2023-09-18T08:00:06;100022.23;;;19.29;97.96
41706;BME280;27385;51.096;17.190;2023-09-18T08:02:41;100022.85;;;19.43;97.72
41706;BME280;27385;51.096;17.190;2023-09-18T08:05:13;100016.97;;;19.56;97.60
41706;BME280;27385;51.096;17.190;2023-09-18T08:07:44;100012.98;;;19.67;97.06
41706;BME280;27385;51.096;17.190;2023-09-18T08:10:17;100012.63;;;19.76;96.84
41706;BME280;27385;51.096;17.190;2023-09-18T08:12:48;100008.60;;;19.88;96.73
41706;BME280;27385;51.096;17.190;2023-09-18T08:15:21;100006.95;;;19.99;96.23
41706;BME280;27385;51.096;17.190;2023-09-18T08:17:52;100000.67;;;20.09;95.64
41706;BME280;27385;51.096;17.190;2023-09-18T08:20:23;100005.04;;;20.20;95.44
41706;BME280;27385;51.096;17.190;2023-09-18T08:22:55;100000.88;;;20.35;95.66
41706;BME280;27385;51.096;17.190;2023-09-18T08:25:26;99996.80;;;20.47;95.12
41706;BME280;27385;51.096;17.190;2023-09-18T08:27:57;99993.38;;;20.58;94.89
41706;BME280;27385;51.096;17.190;2023-09-18T08:30:28;99990.96;;;20.66;94.42
41706;BME280;27385;51.096;17.190;2023-09-18T08:32:58;99985.11;;;20.73;93.97
41706;BME280;27385;51.096;17.190;2023-09-18T08:35:29;99979.68;;;20.81;93.58
41706;BME280;27385;51.096;17.190;2023-09-18T08:38:01;99978.34;;;20.87;93.27
41706;BME280;27385;51.096;17.190;2023-09-18T08:40:34;99972.10;;;20.96;93.27
41706;BME280;27385;51.096;17.190;2023-09-18T08:43:05;99971.08;;;21.06;93.05
41706;BME280;27385;51.096;17.190;2023-09-18T08:45:40;99971.11;;;21.15;92.51
41706;BME280;27385;51.096;17.190;2023-09-18T08:48:14;99968.17;;;21.23;91.83
41706;BME280;27385;51.096;17.190;2023-09-18T08:50:46;99967.41;;;21.29;91.43
41706;BME280;27385;51.096;17.190;2023-09-18T08:53:17;99961.45;;;21.35;91.20
41706;BME280;27385;51.096;17.190;2023-09-18T08:55:48;99958.70;;;21.45;90.87
41706;BME280;27385;51.096;17.190;2023-09-18T08:58:19;99949.30;;;21.53;90.58
41706;BME280;27385;51.096;17.190;2023-09-18T09:00:51;99943.72;;;21.61;90.41
41706;BME280;27385;51.096;17.190;2023-09-18T09:03:22;99941.06;;;21.69;90.04
41706;BME280;27385;51.096;17.190;2023-09-18T09:05:53;99938.21;;;21.78;89.65
41706;BME280;27385;51.096;17.190;2023-09-18T09:08:24;99937.35;;;21.87;88.75
41706;BME280;27385;51.096;17.190;2023-09-18T09:10:55;99937.30;;;21.95;88.83
41706;BME280;27385;51.096;17.190;2023-09-18T09:13:27;99937.95;;;22.04;88.20
41706;BME280;27385;51.096;17.190;2023-09-18T09:15:59;99938.23;;;22.16;87.50
41706;BME280;27385;51.096;17.190;2023-09-18T09:18:31;99933.39;;;22.28;87.67
41706;BME280;27385;51.096;17.190;2023-09-18T09:21:03;99937.23;;;22.38;87.58
41706;BME280;27385;51.096;17.190;2023-09-18T09:23:49;99936.16;;;22.48;87.34
41706;BME280;27385;51.096;17.190;2023-09-18T09:26:23;99935.94;;;22.56;86.77
41706;BME280;27385;51.096;17.190;2023-09-18T09:28:54;99936.11;;;22.66;86.09
41706;BME280;27385;51.096;17.190;2023-09-18T09:31:26;99933.09;;;22.76;85.64
41706;BME280;27385;51.096;17.190;2023-09-18T09:33:57;99926.94;;;22.85;84.97
41706;BME280;27385;51.096;17.190;2023-09-18T09:36:30;99927.55;;;22.95;85.16
41706;BME280;27385;51.096;17.190;2023-09-18T09:39:03;99928.66;;;23.05;84.63
41706;BME280;27385;51.096;17.190;2023-09-18T09:41:35;99924.99;;;23.15;84.09
41706;BME280;27385;51.096;17.190;2023-09-18T09:44:06;99923.23;;;23.22;83.84
41706;BME280;27385;51.096;17.190;2023-09-18T09:46:37;99920.92;;;23.28;82.49
41706;BME280;27385;51.096;17.190;2023-09-18T09:49:08;99917.01;;;23.37;82.47
41706;BME280;27385;51.096;17.190;2023-09-18T09:51:39;99914.35;;;23.45;82.26
41706;BME280;27385;51.096;17.190;2023-09-18T09:54:11;99914.31;;;23.53;81.12
41706;BME280;27385;51.096;17.190;2023-09-18T09:56:45;99908.65;;;23.60;80.90
41706;BME280;27385;51.096;17.190;2023-09-18T09:59:18;99902.20;;;23.65;80.39
41706;BME280;27385;51.096;17.190;2023-09-18T10:01:50;99900.72;;;23.71;80.06
41706;BME280;27385;51.096;17.190;2023-09-18T10:04:21;99897.34;;;23.77;79.70
41706;BME280;27385;51.096;17.190;2023-09-18T10:06:56;99892.07;;;23.81;78.55
41706;BME280;27385;51.096;17.190;2023-09-18T10:09:29;99893.48;;;23.88;78.55
41706;BME280;27385;51.096;17.190;2023-09-18T10:12:00;99889.60;;;23.94;78.34
41706;BME280;27385;51.096;17.190;2023-09-18T10:14:34;99890.34;;;24.02;78.22
41706;BME280;27385;51.096;17.190;2023-09-18T10:17:17;99885.33;;;24.10;77.53
41706;BME280;27385;51.096;17.190;2023-09-18T10:19:53;99879.67;;;24.17;77.19
41706;BME280;27385;51.096;17.190;2023-09-18T10:22:30;99874.53;;;24.24;76.96
41706;BME280;27385;51.096;17.190;2023-09-18T10:25:10;99871.49;;;24.32;76.45
41706;BME280;27385;51.096;17.190;2023-09-18T10:27:43;99875.16;;;24.38;75.93
41706;BME280;27385;51.096;17.190;2023-09-18T10:30:16;99873.48;;;24.43;75.91
41706;BME280;27385;51.096;17.190;2023-09-18T10:32:47;99872.60;;;24.51;75.87
41706;BME280;27385;51.096;17.190;2023-09-18T10:35:18;99868.81;;;24.57;75.27
41706;BME280;27385;51.096;17.190;2023-09-18T10:37:50;99864.99;;;24.62;74.37
41706;BME280;27385;51.096;17.190;2023-09-18T10:40:24;99871.46;;;24.70;73.99
41706;BME280;27385;51.096;17.190;2023-09-18T10:42:58;99869.25;;;24.77;73.76
41706;BME280;27385;51.096;17.190;2023-09-18T10:45:33;99864.58;;;24.82;73.30
41706;BME280;27385;51.096;17.190;2023-09-18T10:48:06;99862.66;;;24.87;72.97
41706;BME280;27385;51.096;17.190;2023-09-18T10:50:38;99861.45;;;24.93;72.59
41706;BME280;27385;51.096;17.190;2023-09-18T10:53:10;99859.34;;;24.97;71.72
41706;BME280;27385;51.096;17.190;2023-09-18T10:55:42;99859.79;;;25.03;71.13
41706;BME280;27385;51.096;17.190;2023-09-18T10:58:15;99862.53;;;25.10;70.93
41706;BME280;27385;51.096;17.190;2023-09-18T11:00:55;99859.14;;;25.17;70.45
41706;BME280;27385;51.096;17.190;2023-09-18T11:03:26;99866.00;;;25.24;70.82
41706;BME280;27385;51.096;17.190;2023-09-18T11:06:07;99864.55;;;25.33;69.87
41706;BME280;27385;51.096;17.190;2023-09-18T11:08:46;99854.27;;;25.38;69.05
41706;BME280;27385;51.096;17.190;2023-09-18T11:11:19;99844.77;;;25.44;68.28
41706;BME280;27385;51.096;17.190;2023-09-18T11:13:52;99838.32;;;25.50;67.52
41706;BME280;27385;51.096;17.190;2023-09-18T11:16:36;99838.34;;;25.54;67.40
41706;BME280;27385;51.096;17.190;2023-09-18T11:19:16;99834.77;;;25.58;67.05
41706;BME280;27385;51.096;17.190;2023-09-18T11:21:48;99830.02;;;25.63;66.67
41706;BME280;27385;51.096;17.190;2023-09-18T11:24:37;99821.42;;;25.66;66.82
41706;BME280;27385;51.096;17.190;2023-09-18T11:27:08;99820.84;;;25.72;66.81
41706;BME280;27385;51.096;17.190;2023-09-18T11:29:39;99820.64;;;25.78;66.70
41706;BME280;27385;51.096;17.190;2023-09-18T11:32:10;99818.35;;;25.85;66.35
41706;BME280;27385;51.096;17.190;2023-09-18T11:34:41;99814.50;;;25.89;66.23
41706;BME280;27385;51.096;17.190;2023-09-18T11:37:21;99810.29;;;25.90;66.08
41706;BME280;27385;51.096;17.190;2023-09-18T11:39:55;99803.05;;;25.94;65.71
41706;BME280;27385;51.096;17.190;2023-09-18T11:42:27;99798.34;;;25.96;65.58
41706;BME280;27385;51.096;17.190;2023-09-18T11:44:58;99801.33;;;26.01;65.35
41706;BME280;27385;51.096;17.190;2023-09-18T11:47:29;99794.55;;;26.12;64.77
41706;BME280;27385;51.096;17.190;2023-09-18T11:50:02;99784.93;;;26.20;63.76
41706;BME280;27385;51.096;17.190;2023-09-18T11:52:36;99776.38;;;26.30;62.92
41706;BME280;27385;51.096;17.190;2023-09-18T11:55:08;99773.65;;;26.34;62.04
41706;BME280;27385;51.096;17.190;2023-09-18T11:57:39;99774.13;;;26.38;61.21
41706;BME280;27385;51.096;17.190;2023-09-18T12:00:20;99771.28;;;26.38;60.37
41706;BME280;27385;51.096;17.190;2023-09-18T12:02:54;99768.40;;;26.38;60.35
41706;BME280;27385;51.096;17.190;2023-09-18T12:05:27;99761.97;;;26.38;59.73
41706;BME280;27385;51.096;17.190;2023-09-18T12:07:58;99764.77;;;26.41;59.87
41706;BME280;27385;51.096;17.190;2023-09-18T12:10:29;99762.42;;;26.46;59.96
41706;BME280;27385;51.096;17.190;2023-09-18T12:13:01;99767.23;;;26.51;59.45
41706;BME280;27385;51.096;17.190;2023-09-18T12:15:36;99772.20;;;26.56;58.99
41706;BME280;27385;51.096;17.190;2023-09-18T12:18:09;99769.55;;;26.61;58.89
41706;BME280;27385;51.096;17.190;2023-09-18T12:20:47;99769.21;;;26.61;58.45
41706;BME280;27385;51.096;17.190;2023-09-18T12:23:19;99768.52;;;26.63;57.97
41706;BME280;27385;51.096;17.190;2023-09-18T12:25:56;99762.86;;;26.67;56.96
41706;BME280;27385;51.096;17.190;2023-09-18T12:28:29;99765.66;;;26.69;56.83
41706;BME280;27385;51.096;17.190;2023-09-18T12:30:59;99755.90;;;26.66;56.59
41706;BME280;27385;51.096;17.190;2023-09-18T12:33:37;99751.55;;;26.67;56.65
41706;BME280;27385;51.096;17.190;2023-09-18T12:36:09;99742.63;;;26.69;56.43
41706;BME280;27385;51.096;17.190;2023-09-18T12:38:40;99747.98;;;26.71;56.44
41706;BME280;27385;51.096;17.190;2023-09-18T12:41:12;99749.85;;;26.77;55.98
41706;BME280;27385;51.096;17.190;2023-09-18T12:43:44;99749.04;;;26.81;55.91
41706;BME280;27385;51.096;17.190;2023-09-18T12:46:15;99747.86;;;26.83;55.76
41706;BME280;27385;51.096;17.190;2023-09-18T12:48:46;99748.40;;;26.84;55.77
41706;BME280;27385;51.096;17.190;2023-09-18T12:51:16;99748.06;;;26.84;55.55
41706;BME280;27385;51.096;17.190;2023-09-18T12:54:01;99743.18;;;26.84;55.20
41706;BME280;27385;51.096;17.190;2023-09-18T12:56:41;99736.83;;;26.85;54.45
41706;BME280;27385;51.096;17.190;2023-09-18T12:59:12;99732.66;;;26.88;54.31
41706;BME280;27385;51.096;17.190;2023-09-18T13:01:47;99723.34;;;26.88;53.88
41706;BME280;27385;51.096;17.190;2023-09-18T13:04:18;99722.33;;;26.86;53.77
41706;BME280;27385;51.096;17.190;2023-09-18T13:07:04;99720.18;;;26.84;54.00